sensor_id;sensor_type;location;lat;lon;timestamp;P1;durP1;ratioP1;P2;durP2;ratioP2
45402;SDS011;47427;51.976;5.326;2023-02-18T00:03:18;105.47;;;43.17;;
45402;SDS011;47427;51.976;5.326;2023-02-18T00:06:50;109.43;;;42.90;;
45402;SDS011;47427;51.976;5.326;2023-02-18T00:10:21;120.80;;;50.30;;
45402;SDS011;47427;51.976;5.326;2023-02-18T00:14:15;119.60;;;51.88;;
45402;SDS011;47427;51.976;5.326;2023-02-18T00:17:50;117.85;;;45.40;;
45402;SDS011;47427;51.976;5.326;2023-02-18T00:21:22;116.53;;;45.85;;
45402;SDS011;47427;51.976;5.326;2023-02-18T00:24:44;113.30;;;47.78;;
45402;SDS011;47427;51.976;5.326;2023-02-18T00:28:13;114.53;;;46.20;;
45402;SDS011;47427;51.976;5.326;2023-02-18T00:31:38;130.57;;;46.10;;
45402;SDS011;47427;51.976;5.326;2023-02-18T00:35:02;119.03;;;43.75;;
45402;SDS011;47427;51.976;5.326;2023-02-18T00:38:38;99.00;;;42.20;;
45402;SDS011;47427;51.976;5.326;2023-02-18T00:42:14;103.68;;;42.45;;
45402;SDS011;47427;51.976;5.326;2023-02-18T00:45:37;123.55;;;44.70;;
45402;SDS011;47427;51.976;5.326;2023-02-18T00:49:26;104.82;;;43.88;;
45402;SDS011;47427;51.976;5.326;2023-02-18T00:53:05;119.40;;;45.97;;
45402;SDS011;47427;51.976;5.326;2023-02-18T00:56:28;104.22;;;42.70;;
45402;SDS011;47427;51.976;5.326;2023-02-18T00:59:50;136.40;;;45.67;;
45402;SDS011;47427;51.976;5.326;2023-02-18T01:03:16;103.70;;;38.00;;
45402;SDS011;47427;51.976;5.326;2023-02-18T01:06:44;80.07;;;35.92;;
45402;SDS011;47427;51.976;5.326;2023-02-18T01:10:30;73.43;;;30.53;;
45402;SDS011;47427;51.976;5.326;2023-02-18T01:13:53;71.82;;;28.95;;
45402;SDS011;47427;51.976;5.326;2023-02-18T01:17:23;81.88;;;33.33;;
45402;SDS011;47427;51.976;5.326;2023-02-18T01:20:46;93.40;;;36.40;;
45402;SDS011;47427;51.976;5.326;2023-02-18T01:24:09;75.63;;;33.85;;
45402;SDS011;47427;51.976;5.326;2023-02-18T01:27:42;105.35;;;40.80;;
45402;SDS011;47427;51.976;5.326;2023-02-18T01:31:14;102.85;;;41.65;;
45402;SDS011;47427;51.976;5.326;2023-02-18T01:34:41;96.80;;;37.35;;
45402;SDS011;47427;51.976;5.326;2023-02-18T01:38:16;100.32;;;38.92;;
45402;SDS011;47427;51.976;5.326;2023-02-18T01:41:50;88.85;;;38.60;;
45402;SDS011;47427;51.976;5.326;2023-02-18T01:46:03;93.85;;;36.88;;
45402;SDS011;47427;51.976;5.326;2023-02-18T01:49:48;93.47;;;42.85;;
45402;SDS011;47427;51.976;5.326;2023-02-18T01:53:14;98.00;;;43.88;;
45402;SDS011;47427;51.976;5.326;2023-02-18T02:01:02;88.95;;;37.78;;
45402;SDS011;47427;51.976;5.326;2023-02-18T02:04:48;95.60;;;39.33;;
45402;SDS011;47427;51.976;5.326;2023-02-18T02:08:10;102.00;;;42.03;;
45402;SDS011;47427;51.976;5.326;2023-02-18T02:40:39;70.25;;;34.60;;
45402;SDS011;47427;51.976;5.326;2023-02-18T02:44:42;67.15;;;32.53;;
45402;SDS011;47427;51.976;5.326;2023-02-18T02:52:09;78.68;;;37.13;;
45402;SDS011;47427;51.976;5.326;2023-02-18T02:55:59;69.70;;;33.08;;
45402;SDS011;47427;51.976;5.326;2023-02-18T02:59:57;76.97;;;34.92;;
45402;SDS011;47427;51.976;5.326;2023-02-18T03:15:36;86.22;;;37.10;;
45402;SDS011;47427;51.976;5.326;2023-02-18T03:23:10;81.15;;;34.58;;
45402;SDS011;47427;51.976;5.326;2023-02-18T03:27:10;85.05;;;35.13;;
45402;SDS011;47427;51.976;5.326;2023-02-18T03:30:54;86.00;;;35.88;;
45402;SDS011;47427;51.976;5.326;2023-02-18T03:34:38;98.80;;;37.45;;
45402;SDS011;47427;51.976;5.326;2023-02-18T03:38:10;73.43;;;33.13;;
45402;SDS011;47427;51.976;5.326;2023-02-18T03:41:51;74.78;;;30.80;;
45402;SDS011;47427;51.976;5.326;2023-02-18T03:45:16;70.07;;;31.58;;
45402;SDS011;47427;51.976;5.326;2023-02-18T03:48:39;72.75;;;27.77;;
45402;SDS011;47427;51.976;5.326;2023-02-18T03:52:09;67.38;;;27.83;;
45402;SDS011;47427;51.976;5.326;2023-02-18T03:55:34;55.35;;;23.80;;
45402;SDS011;47427;51.976;5.326;2023-02-18T03:58:58;67.60;;;24.67;;
45402;SDS011;47427;51.976;5.326;2023-02-18T04:02:25;40.95;;;18.00;;
45402;SDS011;47427;51.976;5.326;2023-02-18T04:05:46;40.50;;;21.45;;
45402;SDS011;47427;51.976;5.326;2023-02-18T04:09:28;42.00;;;19.13;;
45402;SDS011;47427;51.976;5.326;2023-02-18T04:13:05;33.00;;;16.38;;
45402;SDS011;47427;51.976;5.326;2023-02-18T04:16:32;32.40;;;15.48;;
45402;SDS011;47427;51.976;5.326;2023-02-18T04:20:16;31.13;;;14.90;;
45402;SDS011;47427;51.976;5.326;2023-02-18T04:23:46;26.25;;;16.33;;
45402;SDS011;47427;51.976;5.326;2023-02-18T04:27:20;31.13;;;17.92;;
45402;SDS011;47427;51.976;5.326;2023-02-18T04:30:45;20.90;;;12.23;;
45402;SDS011;47427;51.976;5.326;2023-02-18T04:34:23;23.35;;;14.73;;
45402;SDS011;47427;51.976;5.326;2023-02-18T04:37:47;29.83;;;15.05;;
45402;SDS011;47427;51.976;5.326;2023-02-18T04:41:20;24.75;;;15.15;;
45402;SDS011;47427;51.976;5.326;2023-02-18T04:44:52;27.55;;;15.35;;
45402;SDS011;47427;51.976;5.326;2023-02-18T04:48:14;23.52;;;12.43;;
45402;SDS011;47427;51.976;5.326;2023-02-18T04:51:37;17.17;;;9.68;;
45402;SDS011;47427;51.976;5.326;2023-02-18T04:55:00;15.68;;;9.85;;
45402;SDS011;47427;51.976;5.326;2023-02-18T04:58:29;15.77;;;9.57;;
45402;SDS011;47427;51.976;5.326;2023-02-18T05:01:58;15.70;;;8.70;;
45402;SDS011;47427;51.976;5.326;2023-02-18T05:05:21;17.85;;;10.32;;
45402;SDS011;47427;51.976;5.326;2023-02-18T05:08:48;16.13;;;10.73;;
45402;SDS011;47427;51.976;5.326;2023-02-18T05:12:19;20.27;;;13.25;;
45402;SDS011;47427;51.976;5.326;2023-02-18T05:16:09;17.30;;;11.10;;
45402;SDS011;47427;51.976;5.326;2023-02-18T05:19:53;27.33;;;15.57;;
45402;SDS011;47427;51.976;5.326;2023-02-18T05:23:14;26.33;;;15.45;;
45402;SDS011;47427;51.976;5.326;2023-02-18T05:26:44;27.85;;;15.95;;
45402;SDS011;47427;51.976;5.326;2023-02-18T05:30:41;23.45;;;17.48;;
45402;SDS011;47427;51.976;5.326;2023-02-18T05:34:08;26.65;;;14.07;;
45402;SDS011;47427;51.976;5.326;2023-02-18T05:37:35;19.75;;;13.52;;
45402;SDS011;47427;51.976;5.326;2023-02-18T05:40:59;15.60;;;11.93;;
45402;SDS011;47427;51.976;5.326;2023-02-18T05:44:26;16.17;;;11.77;;
45402;SDS011;47427;51.976;5.326;2023-02-18T05:51:14;28.45;;;15.15;;
45402;SDS011;47427;51.976;5.326;2023-02-18T05:54:37;35.75;;;16.95;;
45402;SDS011;47427;51.976;5.326;2023-02-18T05:57:59;27.42;;;18.20;;
45402;SDS011;47427;51.976;5.326;2023-02-18T06:01:30;25.92;;;14.88;;
45402;SDS011;47427;51.976;5.326;2023-02-18T06:05:04;32.78;;;17.42;;
45402;SDS011;47427;51.976;5.326;2023-02-18T06:08:26;35.90;;;18.17;;
45402;SDS011;47427;51.976;5.326;2023-02-18T06:11:54;38.80;;;17.80;;
45402;SDS011;47427;51.976;5.326;2023-02-18T06:15:24;31.60;;;17.30;;
45402;SDS011;47427;51.976;5.326;2023-02-18T06:18:51;39.13;;;18.33;;
45402;SDS011;47427;51.976;5.326;2023-02-18T06:22:23;40.20;;;18.35;;
45402;SDS011;47427;51.976;5.326;2023-02-18T06:25:54;30.42;;;16.83;;
45402;SDS011;47427;51.976;5.326;2023-02-18T06:29:42;31.60;;;17.55;;
45402;SDS011;47427;51.976;5.326;2023-02-18T06:33:03;33.78;;;17.50;;
45402;SDS011;47427;51.976;5.326;2023-02-18T06:36:25;25.23;;;13.23;;
45402;SDS011;47427;51.976;5.326;2023-02-18T06:39:49;33.40;;;16.63;;
45402;SDS011;47427;51.976;5.326;2023-02-18T06:43:17;32.67;;;19.05;;
45402;SDS011;47427;51.976;5.326;2023-02-18T06:46:45;37.20;;;17.10;;
45402;SDS011;47427;51.976;5.326;2023-02-18T06:50:06;32.35;;;18.17;;
45402;SDS011;47427;51.976;5.326;2023-02-18T06:53:37;33.33;;;17.13;;
45402;SDS011;47427;51.976;5.326;2023-02-18T06:56:59;44.70;;;18.17;;
45402;SDS011;47427;51.976;5.326;2023-02-18T07:00:20;42.63;;;21.33;;
45402;SDS011;47427;51.976;5.326;2023-02-18T07:03:42;44.70;;;19.95;;
45402;SDS011;47427;51.976;5.326;2023-02-18T07:07:12;41.03;;;17.65;;
45402;SDS011;47427;51.976;5.326;2023-02-18T07:10:34;45.58;;;19.17;;
45402;SDS011;47427;51.976;5.326;2023-02-18T07:13:57;36.42;;;16.92;;
45402;SDS011;47427;51.976;5.326;2023-02-18T07:17:22;37.17;;;17.30;;
45402;SDS011;47427;51.976;5.326;2023-02-18T07:20:43;36.20;;;15.32;;
45402;SDS011;47427;51.976;5.326;2023-02-18T07:24:05;30.52;;;12.63;;
45402;SDS011;47427;51.976;5.326;2023-02-18T07:27:57;43.85;;;15.63;;
45402;SDS011;47427;51.976;5.326;2023-02-18T07:31:43;33.97;;;14.02;;
45402;SDS011;47427;51.976;5.326;2023-02-18T07:35:12;34.85;;;16.00;;
45402;SDS011;47427;51.976;5.326;2023-02-18T07:38:42;42.10;;;15.35;;
45402;SDS011;47427;51.976;5.326;2023-02-18T07:42:10;40.75;;;15.05;;
45402;SDS011;47427;51.976;5.326;2023-02-18T07:45:37;45.08;;;12.65;;
45402;SDS011;47427;51.976;5.326;2023-02-18T07:49:03;39.28;;;13.13;;
45402;SDS011;47427;51.976;5.326;2023-02-18T07:52:33;36.30;;;9.95;;
45402;SDS011;47427;51.976;5.326;2023-02-18T07:56:05;33.35;;;9.15;;
45402;SDS011;47427;51.976;5.326;2023-02-18T07:59:34;38.92;;;8.57;;
45402;SDS011;47427;51.976;5.326;2023-02-18T08:03:16;37.05;;;10.80;;
45402;SDS011;47427;51.976;5.326;2023-02-18T08:06:51;33.03;;;8.23;;
45402;SDS011;47427;51.976;5.326;2023-02-18T08:10:32;30.17;;;8.05;;
45402;SDS011;47427;51.976;5.326;2023-02-18T08:14:01;31.05;;;8.35;;
45402;SDS011;47427;51.976;5.326;2023-02-18T08:17:22;30.83;;;7.05;;
45402;SDS011;47427;51.976;5.326;2023-02-18T08:20:46;25.20;;;6.90;;
45402;SDS011;47427;51.976;5.326;2023-02-18T08:24:09;32.45;;;7.63;;
45402;SDS011;47427;51.976;5.326;2023-02-18T08:27:42;37.85;;;7.22;;
45402;SDS011;47427;51.976;5.326;2023-02-18T08:31:12;36.20;;;7.05;;
45402;SDS011;47427;51.976;5.326;2023-02-18T08:35:19;29.08;;;7.57;;
45402;SDS011;47427;51.976;5.326;2023-02-18T08:38:44;24.92;;;6.18;;
45402;SDS011;47427;51.976;5.326;2023-02-18T08:42:40;28.10;;;5.93;;
45402;SDS011;47427;51.976;5.326;2023-02-18T08:46:05;31.85;;;6.15;;
45402;SDS011;47427;51.976;5.326;2023-02-18T08:49:28;35.28;;;7.03;;
45402;SDS011;47427;51.976;5.326;2023-02-18T08:52:56;23.75;;;4.55;;
45402;SDS011;47427;51.976;5.326;2023-02-18T08:56:28;29.25;;;6.13;;
45402;SDS011;47427;51.976;5.326;2023-02-18T08:59:52;25.60;;;5.80;;
45402;SDS011;47427;51.976;5.326;2023-02-18T09:06:39;24.65;;;5.97;;
45402;SDS011;47427;51.976;5.326;2023-02-18T09:10:03;20.65;;;5.00;;
45402;SDS011;47427;51.976;5.326;2023-02-18T09:13:32;23.65;;;5.72;;
45402;SDS011;47427;51.976;5.326;2023-02-18T09:17:14;30.55;;;6.88;;
45402;SDS011;47427;51.976;5.326;2023-02-18T09:20:38;25.40;;;5.13;;
45402;SDS011;47427;51.976;5.326;2023-02-18T09:24:02;15.18;;;5.40;;
45402;SDS011;47427;51.976;5.326;2023-02-18T09:27:47;26.75;;;6.45;;
45402;SDS011;47427;51.976;5.326;2023-02-18T09:31:12;17.75;;;4.20;;
45402;SDS011;47427;51.976;5.326;2023-02-18T09:34:57;23.63;;;6.85;;
45402;SDS011;47427;51.976;5.326;2023-02-18T09:38:31;23.25;;;5.65;;
45402;SDS011;47427;51.976;5.326;2023-02-18T09:41:54;27.27;;;6.15;;
45402;SDS011;47427;51.976;5.326;2023-02-18T09:45:50;20.40;;;5.05;;
45402;SDS011;47427;51.976;5.326;2023-02-18T09:49:15;18.00;;;5.20;;
45402;SDS011;47427;51.976;5.326;2023-02-18T09:52:47;27.88;;;5.35;;
45402;SDS011;47427;51.976;5.326;2023-02-18T09:56:10;19.67;;;5.45;;
45402;SDS011;47427;51.976;5.326;2023-02-18T09:59:38;31.17;;;6.55;;
45402;SDS011;47427;51.976;5.326;2023-02-18T10:03:19;26.63;;;5.85;;
45402;SDS011;47427;51.976;5.326;2023-02-18T10:06:50;24.80;;;5.35;;
45402;SDS011;47427;51.976;5.326;2023-02-18T10:14:13;23.80;;;5.70;;
45402;SDS011;47427;51.976;5.326;2023-02-18T10:17:49;28.77;;;7.43;;
45402;SDS011;47427;51.976;5.326;2023-02-18T10:21:21;27.55;;;5.97;;
45402;SDS011;47427;51.976;5.326;2023-02-18T10:25:03;23.52;;;5.95;;
45402;SDS011;47427;51.976;5.326;2023-02-18T10:28:29;24.38;;;5.57;;
45402;SDS011;47427;51.976;5.326;2023-02-18T10:32:00;22.65;;;5.85;;
45402;SDS011;47427;51.976;5.326;2023-02-18T10:35:55;25.90;;;6.93;;
45402;SDS011;47427;51.976;5.326;2023-02-18T10:50:51;31.88;;;7.85;;
45402;SDS011;47427;51.976;5.326;2023-02-18T10:54:14;25.88;;;7.43;;
45402;SDS011;47427;51.976;5.326;2023-02-18T10:57:56;31.33;;;6.85;;
45402;SDS011;47427;51.976;5.326;2023-02-18T11:01:46;26.52;;;7.75;;
45402;SDS011;47427;51.976;5.326;2023-02-18T11:05:23;27.00;;;8.38;;
45402;SDS011;47427;51.976;5.326;2023-02-18T11:08:52;32.50;;;8.20;;
45402;SDS011;47427;51.976;5.326;2023-02-18T11:12:19;31.15;;;9.65;;
45402;SDS011;47427;51.976;5.326;2023-02-18T11:19:34;27.08;;;8.25;;
45402;SDS011;47427;51.976;5.326;2023-02-18T11:23:27;27.15;;;8.60;;
45402;SDS011;47427;51.976;5.326;2023-02-18T11:26:54;32.20;;;11.68;;
45402;SDS011;47427;51.976;5.326;2023-02-18T11:30:49;32.75;;;8.80;;
45402;SDS011;47427;51.976;5.326;2023-02-18T11:34:51;27.10;;;7.70;;
45402;SDS011;47427;51.976;5.326;2023-02-18T11:38:17;34.47;;;9.15;;
45402;SDS011;47427;51.976;5.326;2023-02-18T11:42:22;29.70;;;8.18;;
45402;SDS011;47427;51.976;5.326;2023-02-18T11:46:07;26.35;;;9.65;;
45402;SDS011;47427;51.976;5.326;2023-02-18T11:54:00;31.27;;;8.07;;
45402;SDS011;47427;51.976;5.326;2023-02-18T11:57:56;35.33;;;11.10;;
45402;SDS011;47427;51.976;5.326;2023-02-18T12:01:47;24.17;;;7.80;;
45402;SDS011;47427;51.976;5.326;2023-02-18T12:05:23;21.60;;;7.53;;
45402;SDS011;47427;51.976;5.326;2023-02-18T12:09:05;24.17;;;8.43;;
45402;SDS011;47427;51.976;5.326;2023-02-18T12:12:47;35.55;;;7.80;;
45402;SDS011;47427;51.976;5.326;2023-02-18T12:16:24;23.42;;;7.63;;
45402;SDS011;47427;51.976;5.326;2023-02-18T12:41:54;24.08;;;7.63;;
45402;SDS011;47427;51.976;5.326;2023-02-18T12:49:41;20.15;;;6.63;;
45402;SDS011;47427;51.976;5.326;2023-02-18T13:05:31;29.88;;;8.90;;
45402;SDS011;47427;51.976;5.326;2023-02-18T13:12:56;24.83;;;8.18;;
45402;SDS011;47427;51.976;5.326;2023-02-18T13:16:56;27.88;;;7.60;;
45402;SDS011;47427;51.976;5.326;2023-02-18T13:24:35;25.67;;;8.57;;
45402;SDS011;47427;51.976;5.326;2023-02-18T13:28:22;21.65;;;8.63;;
45402;SDS011;47427;51.976;5.326;2023-02-18T13:32:11;22.42;;;8.57;;
45402;SDS011;47427;51.976;5.326;2023-02-18T13:35:54;28.90;;;8.02;;
45402;SDS011;47427;51.976;5.326;2023-02-18T13:39:50;27.67;;;8.15;;
45402;SDS011;47427;51.976;5.326;2023-02-18T13:46:56;29.92;;;8.77;;
45402;SDS011;47427;51.976;5.326;2023-02-18T13:50:41;26.95;;;8.50;;
45402;SDS011;47427;51.976;5.326;2023-02-18T13:57:45;25.58;;;8.60;;
45402;SDS011;47427;51.976;5.326;2023-02-18T14:01:22;26.15;;;9.10;;
45402;SDS011;47427;51.976;5.326;2023-02-18T14:05:13;25.15;;;9.43;;
45402;SDS011;47427;51.976;5.326;2023-02-18T14:08:49;33.65;;;11.48;;
45402;SDS011;47427;51.976;5.326;2023-02-18T14:24:42;26.77;;;9.02;;
45402;SDS011;47427;51.976;5.326;2023-02-18T14:31:56;23.38;;;8.32;;
45402;SDS011;47427;51.976;5.326;2023-02-18T14:50:35;32.90;;;9.73;;
45402;SDS011;47427;51.976;5.326;2023-02-18T14:54:12;40.88;;;10.98;;
45402;SDS011;47427;51.976;5.326;2023-02-18T14:57:54;29.42;;;11.68;;
45402;SDS011;47427;51.976;5.326;2023-02-18T15:01:25;26.10;;;10.40;;
45402;SDS011;47427;51.976;5.326;2023-02-18T15:05:00;21.45;;;10.48;;
45402;SDS011;47427;51.976;5.326;2023-02-18T15:08:26;29.80;;;10.60;;
45402;SDS011;47427;51.976;5.326;2023-02-18T15:12:00;27.13;;;10.30;;
45402;SDS011;47427;51.976;5.326;2023-02-18T15:15:36;41.15;;;10.65;;
45402;SDS011;47427;51.976;5.326;2023-02-18T15:19:01;28.33;;;10.68;;
45402;SDS011;47427;51.976;5.326;2023-02-18T15:22:31;25.75;;;10.23;;
45402;SDS011;47427;51.976;5.326;2023-02-18T15:26:20;23.58;;;10.85;;
45402;SDS011;47427;51.976;5.326;2023-02-18T15:30:26;25.83;;;10.13;;
45402;SDS011;47427;51.976;5.326;2023-02-18T15:38:26;25.80;;;10.93;;
45402;SDS011;47427;51.976;5.326;2023-02-18T15:41:51;23.50;;;9.68;;
45402;SDS011;47427;51.976;5.326;2023-02-18T15:45:47;32.13;;;11.57;;
45402;SDS011;47427;51.976;5.326;2023-02-18T15:49:20;24.95;;;10.25;;
45402;SDS011;47427;51.976;5.326;2023-02-18T15:53:08;27.05;;;10.48;;
45402;SDS011;47427;51.976;5.326;2023-02-18T15:56:48;24.27;;;9.23;;
45402;SDS011;47427;51.976;5.326;2023-02-18T16:00:15;33.38;;;10.52;;
45402;SDS011;47427;51.976;5.326;2023-02-18T16:04:15;27.08;;;10.98;;
45402;SDS011;47427;51.976;5.326;2023-02-18T16:08:00;24.15;;;9.15;;
45402;SDS011;47427;51.976;5.326;2023-02-18T16:11:37;28.67;;;9.50;;
45402;SDS011;47427;51.976;5.326;2023-02-18T16:15:04;27.17;;;9.85;;
45402;SDS011;47427;51.976;5.326;2023-02-18T16:22:03;27.45;;;9.38;;
45402;SDS011;47427;51.976;5.326;2023-02-18T16:26:11;36.65;;;8.90;;
45402;SDS011;47427;51.976;5.326;2023-02-18T16:30:25;26.95;;;9.48;;
45402;SDS011;47427;51.976;5.326;2023-02-18T16:37:20;32.25;;;8.75;;
45402;SDS011;47427;51.976;5.326;2023-02-18T16:41:14;40.70;;;10.82;;
45402;SDS011;47427;51.976;5.326;2023-02-18T16:44:42;35.65;;;11.73;;
45402;SDS011;47427;51.976;5.326;2023-02-18T16:48:04;23.50;;;8.38;;
45402;SDS011;47427;51.976;5.326;2023-02-18T16:51:30;40.80;;;11.13;;
45402;SDS011;47427;51.976;5.326;2023-02-18T16:54:58;20.05;;;7.78;;
45402;SDS011;47427;51.976;5.326;2023-02-18T16:58:32;37.20;;;10.07;;
45402;SDS011;47427;51.976;5.326;2023-02-18T17:01:55;23.80;;;8.63;;
45402;SDS011;47427;51.976;5.326;2023-02-18T17:05:28;30.58;;;8.63;;
45402;SDS011;47427;51.976;5.326;2023-02-18T17:08:56;33.05;;;10.35;;
45402;SDS011;47427;51.976;5.326;2023-02-18T17:12:30;33.92;;;9.23;;
45402;SDS011;47427;51.976;5.326;2023-02-18T17:15:57;27.80;;;9.33;;
45402;SDS011;47427;51.976;5.326;2023-02-18T17:19:36;34.10;;;8.30;;
45402;SDS011;47427;51.976;5.326;2023-02-18T17:23:01;39.75;;;9.05;;
45402;SDS011;47427;51.976;5.326;2023-02-18T17:26:28;35.88;;;9.63;;
45402;SDS011;47427;51.976;5.326;2023-02-18T17:29:58;22.15;;;8.80;;
45402;SDS011;47427;51.976;5.326;2023-02-18T17:33:28;34.28;;;10.13;;
45402;SDS011;47427;51.976;5.326;2023-02-18T17:36:54;44.15;;;12.70;;
45402;SDS011;47427;51.976;5.326;2023-02-18T17:40:18;31.60;;;9.55;;
45402;SDS011;47427;51.976;5.326;2023-02-18T17:43:42;23.48;;;8.57;;
45402;SDS011;47427;51.976;5.326;2023-02-18T17:47:04;32.22;;;9.75;;
45402;SDS011;47427;51.976;5.326;2023-02-18T17:50:28;24.13;;;9.93;;
45402;SDS011;47427;51.976;5.326;2023-02-18T17:53:50;35.55;;;9.60;;
45402;SDS011;47427;51.976;5.326;2023-02-18T17:57:12;33.08;;;8.95;;
45402;SDS011;47427;51.976;5.326;2023-02-18T18:00:35;28.23;;;10.77;;
45402;SDS011;47427;51.976;5.326;2023-02-18T18:04:13;30.02;;;11.02;;
45402;SDS011;47427;51.976;5.326;2023-02-18T18:07:45;28.75;;;10.13;;
45402;SDS011;47427;51.976;5.326;2023-02-18T18:11:08;23.88;;;9.48;;
45402;SDS011;47427;51.976;5.326;2023-02-18T18:14:51;27.30;;;10.13;;
45402;SDS011;47427;51.976;5.326;2023-02-18T18:18:20;29.83;;;9.48;;
45402;SDS011;47427;51.976;5.326;2023-02-18T18:21:47;29.83;;;9.57;;
45402;SDS011;47427;51.976;5.326;2023-02-18T18:25:20;28.70;;;10.38;;
45402;SDS011;47427;51.976;5.326;2023-02-18T18:28:49;33.63;;;10.20;;
45402;SDS011;47427;51.976;5.326;2023-02-18T18:32:14;29.02;;;11.07;;
45402;SDS011;47427;51.976;5.326;2023-02-18T18:35:35;27.30;;;10.82;;
45402;SDS011;47427;51.976;5.326;2023-02-18T18:39:17;39.47;;;12.82;;
45402;SDS011;47427;51.976;5.326;2023-02-18T18:42:39;34.20;;;12.10;;
45402;SDS011;47427;51.976;5.326;2023-02-18T18:46:10;37.20;;;11.27;;
45402;SDS011;47427;51.976;5.326;2023-02-18T18:49:37;40.60;;;12.32;;
45402;SDS011;47427;51.976;5.326;2023-02-18T18:53:02;35.47;;;11.68;;
45402;SDS011;47427;51.976;5.326;2023-02-18T18:56:40;32.40;;;12.98;;
45402;SDS011;47427;51.976;5.326;2023-02-18T19:00:07;36.80;;;14.13;;
45402;SDS011;47427;51.976;5.326;2023-02-18T19:03:45;35.13;;;14.05;;
45402;SDS011;47427;51.976;5.326;2023-02-18T19:07:18;34.92;;;15.25;;
45402;SDS011;47427;51.976;5.326;2023-02-18T19:10:43;40.00;;;15.07;;
45402;SDS011;47427;51.976;5.326;2023-02-18T19:14:17;41.63;;;18.02;;
45402;SDS011;47427;51.976;5.326;2023-02-18T19:17:49;33.80;;;17.02;;
45402;SDS011;47427;51.976;5.326;2023-02-18T19:21:26;40.72;;;16.35;;
45402;SDS011;47427;51.976;5.326;2023-02-18T19:24:58;38.00;;;16.40;;
45402;SDS011;47427;51.976;5.326;2023-02-18T19:28:21;52.85;;;18.83;;
45402;SDS011;47427;51.976;5.326;2023-02-18T19:31:44;44.20;;;17.05;;
45402;SDS011;47427;51.976;5.326;2023-02-18T19:35:05;43.70;;;18.52;;
45402;SDS011;47427;51.976;5.326;2023-02-18T19:38:27;43.05;;;17.17;;
45402;SDS011;47427;51.976;5.326;2023-02-18T19:41:53;40.20;;;18.73;;
45402;SDS011;47427;51.976;5.326;2023-02-18T19:45:27;56.22;;;21.55;;
45402;SDS011;47427;51.976;5.326;2023-02-18T19:48:51;47.30;;;20.30;;
45402;SDS011;47427;51.976;5.326;2023-02-18T19:52:21;40.58;;;17.33;;
45402;SDS011;47427;51.976;5.326;2023-02-18T19:55:44;49.45;;;19.85;;
45402;SDS011;47427;51.976;5.326;2023-02-18T19:59:18;49.53;;;19.45;;
45402;SDS011;47427;51.976;5.326;2023-02-18T20:02:46;42.25;;;16.98;;
45402;SDS011;47427;51.976;5.326;2023-02-18T20:09:51;50.70;;;17.80;;
45402;SDS011;47427;51.976;5.326;2023-02-18T20:13:23;49.10;;;20.00;;
45402;SDS011;47427;51.976;5.326;2023-02-18T20:16:55;44.55;;;20.15;;
45402;SDS011;47427;51.976;5.326;2023-02-18T20:20:20;50.97;;;21.90;;
45402;SDS011;47427;51.976;5.326;2023-02-18T20:23:47;36.28;;;18.83;;
45402;SDS011;47427;51.976;5.326;2023-02-18T20:27:36;43.47;;;19.70;;
45402;SDS011;47427;51.976;5.326;2023-02-18T20:31:02;40.47;;;17.43;;
45402;SDS011;47427;51.976;5.326;2023-02-18T20:34:41;40.83;;;18.60;;
45402;SDS011;47427;51.976;5.326;2023-02-18T20:38:12;30.05;;;13.18;;
45402;SDS011;47427;51.976;5.326;2023-02-18T20:41:46;18.70;;;11.27;;
45402;SDS011;47427;51.976;5.326;2023-02-18T20:45:12;21.35;;;11.93;;
45402;SDS011;47427;51.976;5.326;2023-02-18T20:48:35;32.53;;;14.48;;
45402;SDS011;47427;51.976;5.326;2023-02-18T20:52:03;42.22;;;16.60;;
45402;SDS011;47427;51.976;5.326;2023-02-18T20:55:29;33.00;;;16.23;;
45402;SDS011;47427;51.976;5.326;2023-02-18T20:59:02;49.63;;;20.88;;
45402;SDS011;47427;51.976;5.326;2023-02-18T21:06:01;43.63;;;21.17;;
45402;SDS011;47427;51.976;5.326;2023-02-18T21:09:32;35.97;;;19.48;;
45402;SDS011;47427;51.976;5.326;2023-02-18T21:12:56;33.22;;;17.08;;
45402;SDS011;47427;51.976;5.326;2023-02-18T21:16:51;27.27;;;15.98;;
45402;SDS011;47427;51.976;5.326;2023-02-18T21:20:15;34.00;;;16.38;;
45402;SDS011;47427;51.976;5.326;2023-02-18T21:23:54;30.42;;;15.48;;
45402;SDS011;47427;51.976;5.326;2023-02-18T21:27:18;38.13;;;18.42;;
45402;SDS011;47427;51.976;5.326;2023-02-18T21:30:48;35.65;;;19.73;;
45402;SDS011;47427;51.976;5.326;2023-02-18T21:34:12;41.78;;;22.38;;
45402;SDS011;47427;51.976;5.326;2023-02-18T21:37:35;52.97;;;21.92;;
45402;SDS011;47427;51.976;5.326;2023-02-18T21:41:10;44.47;;;22.13;;
45402;SDS011;47427;51.976;5.326;2023-02-18T21:44:58;44.92;;;21.42;;
45402;SDS011;47427;51.976;5.326;2023-02-18T21:48:22;61.15;;;26.48;;
45402;SDS011;47427;51.976;5.326;2023-02-18T21:52:04;58.00;;;24.40;;
45402;SDS011;47427;51.976;5.326;2023-02-18T21:55:37;66.80;;;23.90;;
45402;SDS011;47427;51.976;5.326;2023-02-18T21:59:12;72.55;;;27.98;;
45402;SDS011;47427;51.976;5.326;2023-02-18T22:02:35;75.38;;;26.65;;
45402;SDS011;47427;51.976;5.326;2023-02-18T22:06:35;71.60;;;25.98;;
45402;SDS011;47427;51.976;5.326;2023-02-18T22:10:00;63.70;;;26.77;;
45402;SDS011;47427;51.976;5.326;2023-02-18T22:13:30;62.65;;;24.48;;
45402;SDS011;47427;51.976;5.326;2023-02-18T22:16:56;71.28;;;24.63;;
45402;SDS011;47427;51.976;5.326;2023-02-18T22:20:41;63.63;;;25.27;;
45402;SDS011;47427;51.976;5.326;2023-02-18T22:24:35;67.90;;;24.42;;
45402;SDS011;47427;51.976;5.326;2023-02-18T22:27:56;59.78;;;24.77;;
45402;SDS011;47427;51.976;5.326;2023-02-18T22:31:24;65.45;;;24.23;;
45402;SDS011;47427;51.976;5.326;2023-02-18T22:35:02;63.05;;;27.00;;
45402;SDS011;47427;51.976;5.326;2023-02-18T22:38:31;56.97;;;22.67;;
45402;SDS011;47427;51.976;5.326;2023-02-18T22:41:58;75.72;;;26.95;;
45402;SDS011;47427;51.976;5.326;2023-02-18T22:45:22;75.03;;;28.70;;
45402;SDS011;47427;51.976;5.326;2023-02-18T22:48:46;70.90;;;31.67;;
45402;SDS011;47427;51.976;5.326;2023-02-18T22:52:18;68.30;;;31.70;;
45402;SDS011;47427;51.976;5.326;2023-02-18T22:55:39;66.15;;;29.42;;
45402;SDS011;47427;51.976;5.326;2023-02-18T22:59:24;70.88;;;29.05;;
45402;SDS011;47427;51.976;5.326;2023-02-18T23:02:53;66.43;;;30.98;;
45402;SDS011;47427;51.976;5.326;2023-02-18T23:06:23;74.07;;;32.45;;
45402;SDS011;47427;51.976;5.326;2023-02-18T23:09:50;70.20;;;32.10;;
45402;SDS011;47427;51.976;5.326;2023-02-18T23:13:23;78.07;;;34.00;;
45402;SDS011;47427;51.976;5.326;2023-02-18T23:16:54;81.65;;;31.08;;
45402;SDS011;47427;51.976;5.326;2023-02-18T23:20:40;80.88;;;33.67;;
45402;SDS011;47427;51.976;5.326;2023-02-18T23:24:35;69.60;;;26.55;;
45402;SDS011;47427;51.976;5.326;2023-02-18T23:28:06;71.63;;;32.70;;
45402;SDS011;47427;51.976;5.326;2023-02-18T23:31:37;96.35;;;37.25;;
45402;SDS011;47427;51.976;5.326;2023-02-18T23:39:02;60.25;;;31.52;;
45402;SDS011;47427;51.976;5.326;2023-02-18T23:42:47;84.53;;;33.10;;
45402;SDS011;47427;51.976;5.326;2023-02-18T23:46:17;90.60;;;34.95;;
45402;SDS011;47427;51.976;5.326;2023-02-18T23:49:51;85.95;;;33.95;;
45402;SDS011;47427;51.976;5.326;2023-02-18T23:53:16;95.60;;;32.20;;
45402;SDS011;47427;51.976;5.326;2023-02-18T23:56:37;72.47;;;29.38;;
